Fredericksburg, VA (22401)

1:30 PM EST on December 10, 2016 (GMT -0500)
Ridge Pointe | | Change Station

Elev 102 ft 38.32 °N, 77.45 °W | Updated 12 seconds ago

Clear
Clear
36.5 °F
Feels Like 36 °F
N
0.0
Wind Variable Wind from North
Gusts 1.0 mph

Today
High -- | Low -- °F
--% Chance of Precip.
Yesterday
High -- | Low -- °F
Precip. -- in
Pressure 30.46 in
Visibility 10.0 miles
Clouds Clear
Windchill 36 °F
Dew Point 16 °F
Humidity 43%
Rainfall 0.00 in
Snow Depth Not available.
7:16 AM 4:49 PM
Waxing Gibbous, 85% visible
METAR KEZF 101815Z AUTO 28009G14KT 10SM CLR 03/M09 A3046 RMK AO2 T00331088
Pressure 30.46 in
Visibility 10.0 miles
Clouds Clear
Windchill 36 °F
Dew Point 16 °F
Humidity 43%
Rainfall 0.00 in
Snow Depth Not available.
7:16 AM 4:49 PM
Waxing Gibbous, 85% visible
METAR KEZF 101815Z AUTO 28009G14KT 10SM CLR 03/M09 A3046 RMK AO2 T00331088

10-Day Weather Forecast

Almanac

Astronomy

Dec. 10, 2016 Rise Set
Actual Time
Civil Twilight
Nautical Twilight
Astronomical Twilight
Moon
Length of Visible Light
Length of Day
Tomorrow will be .
, % of the Moon is Illuminated

Today's Extremes

State Highs State Lows

Community

WunderPhotos

Upload Photos

1,956,617 photos uploaded!

WunderBlog® & News

Nearby

Air Quality

  Air Quality AQ Index Pollutant
Not available.

Snow Depth

Station Depth Elevation

Earthquake Activity

City Distance Mag. Time & Date
Minimum magnitude displayed is 2.5.

Coastal Water Temperatures

Place Temperature

Stations

Nearby Weather Stations

Station Location Temp. Windchill Dew Point Humidity Wind Precip. Elev Updated Type
                   

Watches & Warnings

There are currently no watches in effect.